Time;durP1;ratioP1;P1;durP2;ratioP2;P2;SDS_P1;SDS_P2;PMS_P1;PMS_P2;Temp;Humidity;BMP_temperature;BMP_pressure;BME280_temperature;BME280_humidity;BME280_pressure;Samples;Min_cycle;Max_cycle;Signal;HPM_P1;HPM_P2
2021/03/30 00:00:51;;;;;;;9.90;3.20;;;13.70;99.90;;;;;;2083508;28;20488;-67
2021/03/30 00:01:52;;;;;;;8.63;2.83;;;13.70;99.90;;;;;;2086163;28;20045;-67
2021/03/30 00:02:53;;;;;;;10.00;3.22;;;13.60;99.90;;;;;;2078028;28;20269;-67
2021/03/30 00:03:54;;;;;;;8.35;3.00;;;13.60;99.90;;;;;;2078128;28;20106;-67
2021/03/30 00:04:54;;;;;;;8.05;3.10;;;13.60;99.90;;;;;;2086247;28;20581;-66
2021/03/30 00:05:55;;;;;;;10.25;3.00;;;13.50;99.90;;;;;;2086341;28;20057;-67
2021/03/30 00:06:56;;;;;;;9.73;3.45;;;13.60;99.90;;;;;;2087171;28;20025;-67
2021/03/30 00:07:56;;;;;;;7.13;3.03;;;13.70;99.90;;;;;;2078406;28;20034;-67
2021/03/30 00:08:57;;;;;;;11.48;2.80;;;13.60;99.90;;;;;;2085320;28;20241;-67
2021/03/30 00:09:58;;;;;;;6.75;2.78;;;13.60;99.90;;;;;;2086190;28;20040;-67
2021/03/30 00:10:58;;;;;;;6.38;2.95;;;13.60;99.90;;;;;;2078737;28;20022;-67
2021/03/30 00:12:00;;;;;;;6.40;2.95;;;13.70;99.90;;;;;;2078699;28;20033;-66
2021/03/30 00:13:00;;;;;;;8.57;2.80;;;13.70;99.90;;;;;;2075827;28;20022;-68
2021/03/30 00:14:01;;;;;;;7.93;3.50;;;13.70;99.90;;;;;;2080592;28;20029;-67
2021/03/30 00:15:05;;;;;;;9.70;3.00;;;13.60;99.90;;;;;;2080480;28;20049;-67
2021/03/30 00:16:05;;;;;;;4.80;2.90;;;13.60;99.90;;;;;;2072221;28;20010;-67
2021/03/30 00:17:06;;;;;;;7.45;3.22;;;13.70;99.90;;;;;;2072795;28;20026;-67
2021/03/30 00:18:07;;;;;;;5.78;3.08;;;13.70;99.90;;;;;;2072687;28;20026;-67
2021/03/30 00:19:08;;;;;;;7.85;2.80;;;13.60;99.90;;;;;;2072576;28;20120;-67
2021/03/30 00:20:14;;;;;;;8.00;3.33;;;13.60;99.90;;;;;;2080808;28;20033;-67
2021/03/30 00:21:15;;;;;;;6.20;3.33;;;13.70;99.90;;;;;;2080191;28;20029;-67
2021/03/30 00:22:16;;;;;;;6.23;3.17;;;13.70;99.90;;;;;;2080686;28;20025;-67
2021/03/30 00:23:17;;;;;;;7.75;3.05;;;13.70;99.90;;;;;;2080885;28;20297;-67
2021/03/30 00:24:17;;;;;;;9.40;3.47;;;13.70;99.90;;;;;;2081578;28;20041;-68
2021/03/30 00:25:18;;;;;;;7.88;2.72;;;13.70;99.90;;;;;;2081018;28;20108;-67
2021/03/30 00:26:19;;;;;;;8.05;3.25;;;13.60;99.90;;;;;;2080839;28;20021;-66
2021/03/30 00:27:19;;;;;;;9.45;3.50;;;13.70;99.90;;;;;;2080741;28;20024;-67
2021/03/30 00:28:20;;;;;;;7.55;2.97;;;13.70;99.90;;;;;;2079676;28;20025;-67
2021/03/30 00:29:21;;;;;;;9.43;2.80;;;13.60;99.90;;;;;;2081283;28;20120;-68
2021/03/30 00:30:22;;;;;;;8.00;3.08;;;13.60;99.90;;;;;;2080589;28;20017;-67
2021/03/30 00:31:23;;;;;;;7.78;3.47;;;13.50;99.90;;;;;;2078997;28;20092;-67
2021/03/30 00:32:24;;;;;;;11.75;3.20;;;13.50;99.90;;;;;;2072936;28;20042;-67
2021/03/30 00:33:24;;;;;;;9.60;3.90;;;13.50;99.90;;;;;;2075400;28;20025;-66
2021/03/30 00:34:25;;;;;;;7.90;3.10;;;13.50;99.90;;;;;;2080868;28;20041;-67
2021/03/30 00:35:26;;;;;;;12.15;3.13;;;13.50;99.90;;;;;;2080988;28;20416;-67
2021/03/30 00:36:26;;;;;;;7.25;2.95;;;13.60;99.90;;;;;;2073406;28;20517;-68
2021/03/30 00:37:27;;;;;;;8.82;3.40;;;13.50;99.90;;;;;;2075638;28;20079;-68
2021/03/30 00:38:28;;;;;;;10.98;3.25;;;13.50;99.90;;;;;;2080493;28;20057;-68
2021/03/30 00:39:29;;;;;;;8.43;3.05;;;13.50;99.90;;;;;;2080671;28;20026;-68
2021/03/30 00:40:30;;;;;;;10.07;3.60;;;13.60;99.90;;;;;;2080651;28;20033;-67
2021/03/30 00:41:38;;;;;;;7.13;3.35;;;13.50;99.90;;;;;;2079057;28;20033;-67
2021/03/30 00:42:39;;;;;;;11.60;3.00;;;13.50;99.90;;;;;;2080944;28;20029;-68
2021/03/30 00:43:40;;;;;;;8.38;2.75;;;13.60;99.90;;;;;;2081380;28;20018;-67
2021/03/30 00:44:40;;;;;;;11.10;2.80;;;13.60;99.90;;;;;;2081449;28;20049;-67
2021/03/30 00:45:41;;;;;;;9.73;3.35;;;13.70;99.90;;;;;;2079430;28;20476;-67
2021/03/30 00:46:45;;;;;;;8.85;3.22;;;13.60;99.80;;;;;;2080422;28;20469;-67
2021/03/30 00:47:47;;;;;;;8.65;3.20;;;13.70;99.80;;;;;;2081536;28;20018;-67
2021/03/30 00:48:50;;;;;;;7.38;3.13;;;13.70;99.80;;;;;;2080709;28;20463;-68
2021/03/30 00:49:51;;;;;;;3.90;2.45;;;13.70;99.70;;;;;;2080662;28;20080;-67
2021/03/30 00:50:52;;;;;;;9.30;2.97;;;13.70;99.60;;;;;;2070981;28;20021;-67
2021/03/30 00:51:53;;;;;;;6.37;2.70;;;13.70;99.40;;;;;;2072325;28;20026;-67
2021/03/30 00:52:54;;;;;;;8.63;2.92;;;13.70;99.40;;;;;;2073269;28;20744;-67
2021/03/30 00:53:55;;;;;;;6.22;2.97;;;13.70;99.50;;;;;;2073279;28;20682;-67
2021/03/30 00:54:56;;;;;;;8.32;3.30;;;13.70;99.40;;;;;;2072608;28;20157;-67
2021/03/30 00:55:57;;;;;;;7.72;3.50;;;13.70;99.30;;;;;;2072821;28;20041;-67
2021/03/30 00:56:57;;;;;;;4.53;2.50;;;13.70;99.20;;;;;;2072773;28;20033;-67
2021/03/30 00:57:58;;;;;;;7.78;2.90;;;13.70;99.40;;;;;;2073136;28;20525;-67
2021/03/30 00:59:01;;;;;;;10.32;2.65;;;13.70;99.40;;;;;;2073203;28;20389;-67
2021/03/30 01:00:10;;;;;;;7.43;2.80;;;13.70;99.20;;;;;;2073151;28;20022;-67
2021/03/30 01:01:11;;;;;;;9.30;2.88;;;13.70;99.00;;;;;;2072622;28;20026;-66
2021/03/30 01:02:13;;;;;;;8.20;3.15;;;13.80;99.00;;;;;;2080462;28;20543;-67
2021/03/30 01:03:13;;;;;;;8.20;2.80;;;13.80;99.00;;;;;;2080525;28;20027;-68
2021/03/30 01:04:14;;;;;;;7.50;2.80;;;13.80;98.90;;;;;;2073114;28;20505;-67
2021/03/30 01:05:15;;;;;;;6.50;2.55;;;13.80;98.90;;;;;;2072575;28;20014;-68
2021/03/30 01:06:16;;;;;;;7.30;3.20;;;13.80;98.80;;;;;;2079346;28;20026;-67
2021/03/30 01:07:16;;;;;;;11.52;3.40;;;13.80;98.80;;;;;;2073135;28;20014;-67
2021/03/30 01:08:38;;;;;;;8.32;2.70;;;13.80;99.20;;;;;;2073257;28;20026;-68
2021/03/30 01:10:03;;;;;;;7.40;2.97;;;13.80;98.70;;;;;;2073118;28;20029;-66
2021/03/30 01:11:21;;;;;;;6.10;2.88;;;13.70;99.00;;;;;;2072443;28;20056;-67
2021/03/30 01:13:06;;;;;;;8.90;2.63;;;13.70;99.00;;;;;;2070188;28;20602;-67
2021/03/30 01:14:48;;;;;;;9.38;2.70;;;13.70;98.80;;;;;;2071895;28;20022;-68
2021/03/30 01:16:24;;;;;;;8.80;2.70;;;13.70;98.90;;;;;;2068824;28;20041;-67
2021/03/30 01:17:51;;;;;;;7.63;2.63;;;13.70;99.60;;;;;;2065917;28;20181;-68
2021/03/30 01:19:04;;;;;;;10.05;3.30;;;13.70;98.90;;;;;;2072780;28;20036;-69
2021/03/30 01:20:32;;;;;;;7.68;3.03;;;13.70;98.90;;;;;;2073050;28;20391;-68
2021/03/30 01:22:16;;;;;;;7.95;3.10;;;13.70;98.80;;;;;;2065736;28;20169;-68
2021/03/30 01:23:48;;;;;;;8.27;3.00;;;13.80;98.70;;;;;;2065124;28;20023;-67
2021/03/30 01:24:57;;;;;;;8.05;3.13;;;13.80;98.50;;;;;;2064141;28;20018;-67
2021/03/30 01:26:01;;;;;;;9.20;2.67;;;13.90;98.40;;;;;;2063893;28;20108;-67
2021/03/30 01:27:08;;;;;;;6.68;2.70;;;13.90;98.40;;;;;;2064576;28;20045;-68
2021/03/30 01:28:23;;;;;;;8.32;3.17;;;13.90;98.30;;;;;;2064535;28;20029;-69
2021/03/30 01:29:40;;;;;;;7.75;2.50;;;13.80;98.60;;;;;;2064984;28;20024;-69
2021/03/30 01:30:41;;;;;;;10.57;3.13;;;13.70;98.60;;;;;;2080081;28;20018;-67
2021/03/30 01:31:46;;;;;;;7.10;2.78;;;13.80;98.50;;;;;;2080149;28;20021;-67
2021/03/30 01:33:10;;;;;;;8.02;2.80;;;13.80;98.50;;;;;;2072880;28;20032;-67
2021/03/30 01:34:13;;;;;;;6.07;2.72;;;13.80;98.40;;;;;;2071971;28;20025;-68
2021/03/30 01:35:17;;;;;;;6.57;3.08;;;13.80;98.50;;;;;;2072100;28;20021;-67
2021/03/30 01:36:24;;;;;;;6.05;2.75;;;13.90;98.50;;;;;;2072787;28;20054;-67
2021/03/30 01:37:26;;;;;;;3.28;2.15;;;13.80;98.40;;;;;;2080021;28;20025;-67
2021/03/30 01:38:28;;;;;;;9.73;2.65;;;13.90;98.40;;;;;;2078441;28;20076;-67
2021/03/30 01:39:30;;;;;;;4.95;2.65;;;13.90;98.40;;;;;;2080048;28;20029;-68
2021/03/30 01:40:32;;;;;;;;;;;13.90;98.40;;;;;;2080502;28;20025;-68
2021/03/30 01:41:34;;;;;;;10.75;3.03;;;13.90;98.30;;;;;;2080421;28;19913;-68
2021/03/30 01:42:36;;;;;;;7.38;2.55;;;13.90;98.60;;;;;;2080001;28;20029;-68
2021/03/30 01:43:36;;;;;;;;;;;13.80;99.00;;;;;;2080889;28;20033;-68
2021/03/30 01:44:39;;;;;;;7.82;2.80;;;13.80;98.70;;;;;;2080401;28;19909;-68
2021/03/30 01:45:41;;;;;;;12.30;2.95;;;13.70;98.80;;;;;;2080271;28;20044;-68
2021/03/30 01:46:42;;;;;;;8.88;2.90;;;13.80;98.70;;;;;;2080275;28;20025;-68
2021/03/30 01:47:44;;;;;;;6.93;2.80;;;13.80;98.60;;;;;;2069419;28;20140;-68
2021/03/30 01:48:46;;;;;;;7.10;3.00;;;13.80;98.60;;;;;;2064539;28;20022;-68
2021/03/30 01:49:47;;;;;;;5.40;2.65;;;13.80;98.60;;;;;;2064611;28;20026;-68
2021/03/30 01:50:49;;;;;;;7.05;2.70;;;13.80;98.80;;;;;;2071993;28;20022;-68
2021/03/30 01:51:50;;;;;;;8.90;3.22;;;13.90;98.50;;;;;;2072111;28;20371;-68
2021/03/30 01:52:53;;;;;;;10.05;3.25;;;13.90;98.30;;;;;;2064003;28;20022;-68
2021/03/30 01:53:55;;;;;;;8.63;3.45;;;14.00;98.30;;;;;;2063989;28;20077;-69
2021/03/30 01:54:56;;;;;;;7.13;3.05;;;14.00;98.30;;;;;;2071821;28;20037;-68
2021/03/30 01:55:59;;;;;;;8.10;2.87;;;14.00;98.50;;;;;;2072007;28;20030;-67
2021/03/30 01:57:01;;;;;;;10.20;2.60;;;13.90;98.30;;;;;;2070789;28;20820;-68
2021/03/30 01:58:03;;;;;;;8.02;3.40;;;13.90;98.60;;;;;;2072041;28;20022;-67
2021/03/30 01:59:07;;;;;;;8.95;2.95;;;13.90;98.40;;;;;;2071995;28;20041;-68
2021/03/30 02:00:09;;;;;;;9.90;3.10;;;13.90;98.50;;;;;;2080226;28;20036;-68
2021/03/30 02:01:13;;;;;;;10.48;2.53;;;13.90;98.40;;;;;;2079536;28;20064;-68
2021/03/30 02:02:14;;;;;;;9.52;3.33;;;13.80;98.50;;;;;;2088408;28;20082;-67
2021/03/30 02:03:17;;;;;;;8.77;2.95;;;13.80;98.40;;;;;;2088498;28;20458;-68
2021/03/30 02:04:21;;;;;;;7.28;2.85;;;13.80;98.50;;;;;;2072419;28;20465;-68
2021/03/30 02:05:22;;;;;;;7.60;3.22;;;13.90;98.50;;;;;;2078315;28;20022;-67
2021/03/30 02:06:24;;;;;;;8.00;2.83;;;13.80;98.60;;;;;;2077454;28;20450;-68
2021/03/30 02:07:26;;;;;;;11.43;3.40;;;13.80;98.40;;;;;;2080095;28;20066;-67
2021/03/30 02:08:31;;;;;;;7.57;2.83;;;13.80;98.60;;;;;;2080124;28;20041;-67
2021/03/30 02:09:36;;;;;;;5.63;2.90;;;13.80;98.40;;;;;;2072512;28;20022;-68
2021/03/30 02:11:46;;;;;;;6.15;2.92;;;13.90;98.20;;;;;;2077776;28;20519;-67
2021/03/30 02:12:46;;;;;;;8.35;2.85;;;13.90;98.20;;;;;;2079466;28;20026;-68
2021/03/30 02:13:54;;;;;;;6.10;2.70;;;13.90;98.00;;;;;;2079775;28;20029;-68
2021/03/30 02:14:55;;;;;;;7.10;2.85;;;13.90;98.00;;;;;;2071907;28;20034;-68
2021/03/30 02:16:15;;;;;;;4.95;2.47;;;13.90;98.20;;;;;;2072021;28;20026;-68
2021/03/30 02:17:21;;;;;;;5.72;2.65;;;13.80;98.50;;;;;;2088354;28;20040;-68
2021/03/30 02:18:23;;;;;;;9.93;2.72;;;13.70;98.20;;;;;;2083554;28;20634;-67
2021/03/30 02:19:45;;;;;;;7.22;3.03;;;13.70;98.40;;;;;;2064147;28;20026;-68
2021/03/30 02:20:53;;;;;;;9.20;2.92;;;13.70;98.70;;;;;;2068991;28;20031;-68
2021/03/30 02:22:00;;;;;;;5.85;2.85;;;13.60;98.60;;;;;;2088020;28;20087;-68
2021/03/30 02:23:13;;;;;;;9.68;2.83;;;13.60;98.60;;;;;;2077192;28;20025;-68
2021/03/30 02:24:15;;;;;;;10.27;2.70;;;13.70;98.40;;;;;;2063816;28;20023;-68
2021/03/30 02:25:18;;;;;;;8.27;3.30;;;13.70;98.30;;;;;;2071645;28;20105;-68
2021/03/30 02:26:19;;;;;;;7.43;3.35;;;13.70;98.40;;;;;;2071349;28;20472;-68
2021/03/30 02:27:22;;;;;;;5.43;2.65;;;13.70;98.40;;;;;;2064291;28;20014;-68
2021/03/30 02:28:50;;;;;;;10.43;3.05;;;13.70;98.40;;;;;;2063411;28;20015;-68
2021/03/30 02:29:54;;;;;;;5.70;2.90;;;13.70;98.30;;;;;;2064913;28;20676;-68
2021/03/30 02:30:55;;;;;;;8.00;3.03;;;13.70;98.30;;;;;;2071339;28;20026;-68
2021/03/30 02:31:57;;;;;;;6.97;3.40;;;13.70;98.30;;;;;;2064474;28;20030;-68
2021/03/30 02:32:58;;;;;;;6.60;2.97;;;13.80;98.30;;;;;;2064345;28;20035;-68
2021/03/30 02:34:03;;;;;;;9.57;3.03;;;13.70;98.20;;;;;;2076982;28;20029;-68
2021/03/30 02:35:06;;;;;;;8.93;3.03;;;13.70;98.30;;;;;;2079531;28;20021;-68
2021/03/30 02:36:08;;;;;;;7.03;2.65;;;13.70;98.30;;;;;;2079137;28;20095;-67
2021/03/30 02:37:09;;;;;;;6.60;2.65;;;13.80;98.20;;;;;;2071747;28;20021;-68
2021/03/30 02:38:11;;;;;;;8.07;2.67;;;13.70;98.40;;;;;;2072524;28;20022;-68
2021/03/30 02:39:14;;;;;;;7.22;3.10;;;13.70;98.40;;;;;;2079849;28;20143;-68
2021/03/30 02:40:16;;;;;;;10.43;3.33;;;13.70;98.30;;;;;;2079685;28;20021;-68
2021/03/30 02:41:18;;;;;;;6.47;3.00;;;13.70;98.40;;;;;;2065046;28;20433;-68
2021/03/30 02:42:19;;;;;;;7.43;2.80;;;13.70;98.40;;;;;;2064105;28;20050;-68
2021/03/30 02:43:21;;;;;;;6.65;2.22;;;13.60;98.50;;;;;;2063875;28;20258;-68
2021/03/30 02:44:23;;;;;;;7.43;2.83;;;13.70;98.40;;;;;;2064401;28;20418;-68
2021/03/30 02:45:27;;;;;;;8.82;3.20;;;13.70;98.40;;;;;;2068253;28;20040;-68
2021/03/30 02:46:31;;;;;;;6.72;2.75;;;13.70;98.10;;;;;;2065158;28;20030;-68
2021/03/30 02:47:33;;;;;;;6.20;2.75;;;13.80;98.10;;;;;;2071284;28;20435;-68
2021/03/30 02:48:36;;;;;;;7.00;2.80;;;13.70;98.00;;;;;;2071659;28;20111;-68
2021/03/30 02:49:37;;;;;;;6.63;2.55;;;13.70;98.30;;;;;;2071151;28;20033;-68
2021/03/30 02:50:40;;;;;;;7.57;3.20;;;13.70;98.40;;;;;;2063373;28;20449;-68
2021/03/30 02:51:42;;;;;;;7.28;3.38;;;13.70;98.60;;;;;;2070211;28;20034;-68
2021/03/30 02:52:43;;;;;;;6.53;2.78;;;13.70;98.60;;;;;;2072152;28;20026;-68
2021/03/30 02:53:46;;;;;;;10.65;2.67;;;13.70;98.00;;;;;;2072623;28;20064;-68
2021/03/30 02:54:47;;;;;;;6.88;2.85;;;13.70;98.00;;;;;;2072497;28;20580;-68
2021/03/30 02:55:49;;;;;;;11.45;2.50;;;13.70;98.20;;;;;;2070386;28;20062;-68
2021/03/30 02:56:49;;;;;;;8.32;2.97;;;13.80;98.10;;;;;;2071928;28;20084;-68
2021/03/30 02:57:50;;;;;;;7.32;2.95;;;13.80;98.10;;;;;;2079741;28;20072;-68
2021/03/30 02:58:52;;;;;;;6.80;2.83;;;13.80;97.90;;;;;;2079751;28;20021;-68
2021/03/30 02:59:54;;;;;;;7.22;2.80;;;13.70;98.10;;;;;;2072298;28;20397;-67
2021/03/30 03:00:55;;;;;;;7.45;2.88;;;13.70;98.50;;;;;;2072348;28;20083;-68
2021/03/30 03:01:57;;;;;;;6.05;2.42;;;13.60;98.40;;;;;;2071967;28;20572;-68
2021/03/30 03:02:59;;;;;;;;;;;13.60;98.30;;;;;;2068494;28;20034;-70
2021/03/30 03:04:04;;;;;;;7.72;3.45;;;13.60;98.30;;;;;;2071938;28;19912;-67
2021/03/30 03:05:07;;;;;;;6.50;2.72;;;13.60;98.30;;;;;;2071953;28;20018;-67
2021/03/30 03:06:10;;;;;;;15.43;3.20;;;13.70;98.20;;;;;;2071927;28;20560;-69
2021/03/30 03:07:11;;;;;;;4.55;2.28;;;13.70;98.00;;;;;;2072271;28;20711;-67
2021/03/30 03:08:12;;;;;;;7.90;3.20;;;13.70;98.30;;;;;;2079727;28;20564;-69
2021/03/30 03:09:14;;;;;;;7.43;3.00;;;13.60;98.20;;;;;;2079797;28;20570;-68
2021/03/30 03:10:14;;;;;;;9.43;2.78;;;13.60;98.40;;;;;;2079644;28;20458;-68
2021/03/30 03:11:17;;;;;;;6.03;2.72;;;13.60;98.30;;;;;;2079506;28;20037;-68
2021/03/30 03:12:18;;;;;;;7.35;2.70;;;13.60;98.10;;;;;;2069031;28;20132;-68
2021/03/30 03:13:19;;;;;;;7.85;2.67;;;13.60;98.30;;;;;;2063854;28;20022;-69
2021/03/30 03:14:20;;;;;;;7.53;2.88;;;13.60;98.20;;;;;;2064083;28;20031;-67
2021/03/30 03:15:22;;;;;;;11.50;2.92;;;13.60;98.10;;;;;;2063974;28;20065;-68
2021/03/30 03:16:24;;;;;;;;;;;13.50;98.30;;;;;;2064534;28;20030;-68
2021/03/30 03:17:25;;;;;;;7.20;2.75;;;13.60;98.20;;;;;;2071489;28;19915;-69
2021/03/30 03:18:26;;;;;;;9.07;2.90;;;13.50;98.20;;;;;;2071765;28;20033;-68
2021/03/30 03:19:28;;;;;;;10.88;2.83;;;13.50;98.40;;;;;;2064083;28;20255;-67
2021/03/30 03:20:29;;;;;;;7.45;3.22;;;13.60;98.10;;;;;;2063759;28;20026;-68
2021/03/30 03:21:30;;;;;;;11.25;2.90;;;13.60;97.90;;;;;;2063846;28;20066;-68
2021/03/30 03:22:31;;;;;;;8.93;3.20;;;13.70;97.90;;;;;;2063690;28;20014;-68
2021/03/30 03:23:32;;;;;;;12.43;2.90;;;13.70;97.90;;;;;;2064034;28;20026;-68
2021/03/30 03:24:33;;;;;;;13.68;3.20;;;13.70;97.90;;;;;;2064193;28;20669;-68
2021/03/30 03:25:34;;;;;;;9.50;3.00;;;13.70;97.90;;;;;;2064002;28;20027;-68
2021/03/30 03:26:38;;;;;;;9.15;3.28;;;13.70;97.60;;;;;;2071617;28;20026;-68
2021/03/30 03:27:38;;;;;;;11.10;3.17;;;13.80;97.80;;;;;;2071212;28;20036;-68
2021/03/30 03:28:43;;;;;;;13.45;3.08;;;13.70;97.70;;;;;;2079288;28;20094;-67
2021/03/30 03:29:44;;;;;;;10.00;3.00;;;13.70;97.90;;;;;;2071197;28;20030;-68
2021/03/30 03:30:46;;;;;;;6.93;2.67;;;13.70;97.70;;;;;;2064119;28;20046;-68
2021/03/30 03:31:48;;;;;;;5.55;2.40;;;13.70;97.70;;;;;;2064200;28;20077;-68
2021/03/30 03:32:49;;;;;;;;;;;13.60;97.70;;;;;;2064628;28;20026;-68
2021/03/30 03:33:49;;;;;;;6.60;2.85;;;13.70;97.80;;;;;;2070149;28;20338;-68
2021/03/30 03:34:50;;;;;;;15.77;3.90;;;13.70;97.60;;;;;;2072122;28;20544;-68
2021/03/30 03:36:12;;;;;;;7.13;3.20;;;13.70;97.90;;;;;;2071746;28;20425;-68
2021/03/30 03:37:12;;;;;;;12.50;3.33;;;13.70;97.80;;;;;;2072028;28;20025;-68
2021/03/30 03:38:13;;;;;;;8.93;3.53;;;13.70;97.50;;;;;;2087579;28;20128;-68
2021/03/30 03:39:16;;;;;;;9.38;3.47;;;13.80;97.50;;;;;;2086479;28;20029;-68
2021/03/30 03:40:17;;;;;;;6.53;2.88;;;13.70;97.50;;;;;;2063708;28;20187;-68
2021/03/30 03:41:18;;;;;;;12.88;3.45;;;13.80;97.30;;;;;;2063798;28;20514;-68
2021/03/30 03:42:18;;;;;;;6.15;3.20;;;13.80;97.30;;;;;;2063975;28;20014;-69
2021/03/30 03:43:19;;;;;;;8.52;3.45;;;13.80;97.10;;;;;;2064003;28;20019;-69
2021/03/30 03:44:20;;;;;;;9.82;3.30;;;13.80;97.30;;;;;;2079525;28;20541;-67
2021/03/30 03:45:21;;;;;;;11.40;3.10;;;13.90;97.10;;;;;;2079382;28;20021;-68
2021/03/30 03:46:22;;;;;;;11.23;3.40;;;13.90;97.30;;;;;;2071537;28;20094;-68
2021/03/30 03:47:22;;;;;;;11.15;3.03;;;13.90;96.90;;;;;;2063794;28;20103;-68
2021/03/30 03:48:24;;;;;;;9.70;3.25;;;13.80;97.20;;;;;;2063760;28;20018;-68
2021/03/30 03:49:25;;;;;;;8.00;3.05;;;13.80;97.20;;;;;;2065254;28;20062;-68
2021/03/30 03:50:26;;;;;;;7.70;3.42;;;13.80;97.30;;;;;;2065544;28;20056;-68
2021/03/30 03:51:32;;;;;;;9.73;3.08;;;13.80;97.20;;;;;;2065441;28;20023;-68
2021/03/30 03:52:40;;;;;;;8.02;3.47;;;13.70;97.30;;;;;;2065448;28;20054;-68
2021/03/30 03:53:42;;;;;;;7.50;3.25;;;13.70;97.30;;;;;;2065507;28;20037;-68
2021/03/30 03:54:44;;;;;;;9.52;3.05;;;13.70;97.20;;;;;;2065414;28;20031;-68
2021/03/30 03:55:50;;;;;;;9.63;3.28;;;13.70;97.10;;;;;;2073353;28;20113;-68
2021/03/30 03:57:00;;;;;;;8.10;3.30;;;13.70;97.50;;;;;;2073267;28;20030;-68
2021/03/30 03:58:06;;;;;;;9.57;3.25;;;13.70;97.20;;;;;;2073560;28;20025;-68
2021/03/30 03:59:17;;;;;;;11.38;3.60;;;13.60;97.20;;;;;;2073604;28;20033;-68
2021/03/30 04:00:20;;;;;;;6.38;3.15;;;13.60;97.40;;;;;;2073600;28;20075;-68
2021/03/30 04:01:25;;;;;;;13.85;3.38;;;13.60;97.20;;;;;;2075003;28;20030;-68
2021/03/30 04:02:44;;;;;;;11.45;3.13;;;13.60;96.90;;;;;;2064692;28;20018;-68
2021/03/30 04:03:57;;;;;;;5.72;3.30;;;13.70;97.00;;;;;;2068475;28;20029;-68
2021/03/30 04:05:11;;;;;;;8.25;3.15;;;13.70;96.80;;;;;;2081538;28;20569;-68
2021/03/30 04:06:22;;;;;;;6.30;3.05;;;13.70;97.20;;;;;;2077496;28;20100;-70
2021/03/30 04:07:28;;;;;;;9.38;3.20;;;13.60;96.80;;;;;;2065206;28;20020;-68
2021/03/30 04:08:33;;;;;;;14.20;3.88;;;13.70;96.40;;;;;;2065237;28;20029;-68
2021/03/30 04:09:35;;;;;;;9.13;3.00;;;13.70;96.50;;;;;;2072140;28;20073;-68
2021/03/30 04:10:38;;;;;;;7.93;2.90;;;13.70;96.60;;;;;;2072604;28;20037;-68
2021/03/30 04:11:40;;;;;;;9.77;3.10;;;13.70;96.60;;;;;;2066696;28;20057;-68
2021/03/30 04:12:41;;;;;;;10.43;3.65;;;13.80;96.50;;;;;;2064520;28;20124;-68
2021/03/30 04:13:45;;;;;;;6.82;3.25;;;13.80;96.30;;;;;;2064837;28;20559;-68
2021/03/30 04:14:46;;;;;;;10.48;3.78;;;13.80;96.50;;;;;;2065433;28;20022;-67
2021/03/30 04:15:47;;;;;;;10.83;3.53;;;13.80;96.60;;;;;;2081537;28;20067;-67
2021/03/30 04:16:48;;;;;;;9.05;3.30;;;13.80;96.50;;;;;;2080895;28;20295;-67
2021/03/30 04:17:49;;;;;;;9.00;3.60;;;13.80;96.40;;;;;;2065122;28;20054;-68
2021/03/30 04:18:49;;;;;;;9.85;3.83;;;13.80;96.60;;;;;;2065300;28;20663;-68
2021/03/30 04:19:50;;;;;;;7.47;3.50;;;13.80;96.60;;;;;;2072778;28;20385;-68
2021/03/30 04:20:51;;;;;;;8.75;3.00;;;13.80;96.50;;;;;;2078936;28;20017;-68
2021/03/30 04:21:51;;;;;;;6.55;3.22;;;13.80;96.60;;;;;;2081246;28;20401;-68
2021/03/30 04:23:53;;;;;;;8.68;3.00;;;13.60;96.50;;;;;;2089293;28;20429;-68
2021/03/30 04:24:54;;;;;;;7.50;3.38;;;13.70;96.40;;;;;;2081717;28;20109;-68
2021/03/30 04:25:55;;;;;;;9.23;3.72;;;13.70;96.40;;;;;;2072810;28;20481;-68
2021/03/30 04:26:55;;;;;;;9.00;2.90;;;13.60;96.50;;;;;;2073312;28;20030;-68
2021/03/30 04:27:56;;;;;;;12.63;3.28;;;13.60;96.70;;;;;;2073051;28;20022;-68
2021/03/30 04:28:57;;;;;;;8.35;3.70;;;13.60;96.80;;;;;;2073234;28;20026;-68
2021/03/30 04:29:58;;;;;;;9.27;3.42;;;13.60;96.70;;;;;;2073403;28;20103;-68
2021/03/30 04:30:58;;;;;;;12.00;3.65;;;13.50;97.10;;;;;;2071689;28;20045;-68
2021/03/30 04:31:59;;;;;;;11.88;3.67;;;13.50;97.00;;;;;;2072981;28;20519;-68
2021/03/30 04:33:01;;;;;;;10.18;3.53;;;13.60;96.90;;;;;;2080471;28;20071;-68
2021/03/30 04:34:02;;;;;;;9.93;3.83;;;13.60;96.80;;;;;;2080729;28;20022;-68
2021/03/30 04:35:03;;;;;;;9.40;3.50;;;13.60;96.80;;;;;;2073178;28;20030;-68
2021/03/30 04:36:04;;;;;;;7.85;3.40;;;13.50;97.00;;;;;;2080746;28;20052;-68
2021/03/30 04:37:05;;;;;;;9.65;3.42;;;13.50;97.20;;;;;;2080616;28;20022;-68
2021/03/30 04:38:06;;;;;;;8.95;3.75;;;13.40;97.00;;;;;;2073244;28;20032;-68
2021/03/30 04:39:06;;;;;;;5.95;2.90;;;13.50;97.20;;;;;;2073280;28;20032;-68
2021/03/30 04:40:10;;;;;;;7.32;3.50;;;13.50;97.40;;;;;;2072527;28;20390;-68
2021/03/30 04:41:12;;;;;;;8.82;3.45;;;13.50;96.80;;;;;;2064966;28;20026;-68
2021/03/30 04:42:12;;;;;;;;;;;13.40;97.10;;;;;;2080917;28;20035;-68
2021/03/30 04:43:13;;;;;;;8.43;3.25;;;13.40;97.10;;;;;;2080719;28;19968;-68
2021/03/30 04:44:14;;;;;;;10.95;3.30;;;13.40;97.10;;;;;;2072462;28;20501;-68
2021/03/30 04:45:15;;;;;;;9.35;3.13;;;13.40;97.30;;;;;;2072616;28;20115;-68
2021/03/30 04:46:16;;;;;;;11.68;3.50;;;13.40;97.00;;;;;;2064477;28;20027;-68
2021/03/30 04:47:18;;;;;;;9.00;3.40;;;13.40;96.90;;;;;;2064113;28;20518;-68
2021/03/30 04:48:18;;;;;;;13.15;4.00;;;13.40;97.00;;;;;;2071711;28;20116;-68
2021/03/30 04:49:19;;;;;;;7.55;2.97;;;13.40;96.90;;;;;;2072320;28;20026;-68
2021/03/30 04:50:20;;;;;;;8.23;3.40;;;13.40;97.10;;;;;;2065107;28;20023;-68
2021/03/30 04:51:20;;;;;;;8.70;3.60;;;13.40;97.10;;;;;;2072627;28;20026;-68
2021/03/30 04:52:21;;;;;;;8.43;3.50;;;13.40;97.20;;;;;;2072108;28;20064;-68
2021/03/30 04:53:22;;;;;;;9.65;3.85;;;13.40;96.80;;;;;;2065017;28;20016;-68
2021/03/30 04:54:22;;;;;;;8.25;3.35;;;13.40;96.80;;;;;;2065098;28;20466;-68
2021/03/30 04:55:23;;;;;;;7.45;3.38;;;13.50;96.90;;;;;;2071747;28;20484;-68
2021/03/30 04:56:24;;;;;;;7.50;3.65;;;13.40;97.00;;;;;;2072367;28;20034;-68
2021/03/30 04:57:25;;;;;;;6.80;3.35;;;13.40;97.00;;;;;;2064657;28;20026;-68
2021/03/30 04:58:25;;;;;;;12.63;3.67;;;13.40;97.30;;;;;;2064990;28;20031;-68
2021/03/30 04:59:26;;;;;;;9.82;3.78;;;13.40;97.10;;;;;;2064950;28;20033;-68
2021/03/30 05:00:27;;;;;;;12.65;3.85;;;13.30;97.10;;;;;;2065084;28;20026;-68
2021/03/30 05:01:28;;;;;;;7.20;3.22;;;13.30;97.20;;;;;;2064699;28;20050;-68
2021/03/30 05:02:28;;;;;;;9.15;3.58;;;13.20;97.50;;;;;;2072277;28;20069;-68
2021/03/30 05:03:29;;;;;;;8.43;3.63;;;13.20;97.40;;;;;;2072482;28;20026;-68
2021/03/30 05:04:30;;;;;;;9.40;3.45;;;13.20;97.40;;;;;;2064178;28;20022;-68
2021/03/30 05:05:30;;;;;;;10.38;3.90;;;13.20;97.40;;;;;;2067002;28;20108;-68
2021/03/30 05:06:31;;;;;;;8.02;3.85;;;13.30;97.00;;;;;;2073634;28;20017;-68
2021/03/30 05:07:32;;;;;;;7.47;3.60;;;13.40;97.20;;;;;;2072024;28;20034;-68
2021/03/30 05:08:32;;;;;;;8.88;3.53;;;13.40;96.70;;;;;;2065006;28;20022;-68
2021/03/30 05:09:33;;;;;;;7.43;3.35;;;13.40;96.90;;;;;;2064845;28;20027;-68
2021/03/30 05:10:34;;;;;;;6.57;3.50;;;13.40;97.00;;;;;;2064980;28;20050;-68
2021/03/30 05:11:35;;;;;;;8.95;4.35;;;13.40;96.90;;;;;;2069314;28;20037;-68
2021/03/30 05:12:36;;;;;;;11.60;3.92;;;13.30;97.10;;;;;;2088463;28;20029;-68
2021/03/30 05:13:37;;;;;;;5.93;3.20;;;13.30;97.00;;;;;;2088654;28;20064;-68
2021/03/30 05:14:37;;;;;;;12.35;4.13;;;13.30;97.20;;;;;;2080621;28;20072;-68
2021/03/30 05:15:38;;;;;;;12.60;4.00;;;13.30;97.10;;;;;;2073014;28;20814;-68
2021/03/30 05:16:39;;;;;;;10.88;4.22;;;13.30;97.30;;;;;;2073236;28;20018;-68
2021/03/30 05:17:39;;;;;;;8.13;3.60;;;13.30;97.40;;;;;;2072730;28;20081;-68
2021/03/30 05:18:41;;;;;;;8.73;4.22;;;13.20;97.40;;;;;;2066226;28;20022;-68
2021/03/30 05:19:42;;;;;;;7.32;3.72;;;13.20;97.40;;;;;;2064707;28;20030;-68
2021/03/30 05:20:42;;;;;;;9.63;3.97;;;13.20;97.40;;;;;;2068713;28;20060;-68
2021/03/30 05:21:43;;;;;;;8.55;3.70;;;13.10;97.50;;;;;;2088571;28;20039;-69
2021/03/30 05:22:44;;;;;;;8.52;3.38;;;13.20;97.30;;;;;;2079053;28;20026;-68
2021/03/30 05:23:45;;;;;;;9.95;4.00;;;13.20;97.40;;;;;;2071432;28;20599;-68
2021/03/30 05:24:45;;;;;;;8.65;3.90;;;13.10;97.40;;;;;;2072915;28;20054;-68
2021/03/30 05:25:46;;;;;;;8.50;3.38;;;13.20;97.30;;;;;;2073205;28;20030;-68
2021/03/30 05:26:47;;;;;;;10.50;4.15;;;13.10;97.30;;;;;;2080301;28;20026;-68
2021/03/30 05:27:47;;;;;;;7.90;3.80;;;13.10;97.30;;;;;;2080118;28;20057;-68
2021/03/30 05:28:48;;;;;;;7.72;3.55;;;13.10;97.40;;;;;;2072373;28;20113;-68
2021/03/30 05:29:49;;;;;;;7.40;3.63;;;13.10;97.20;;;;;;2072827;28;20022;-68
2021/03/30 05:30:49;;;;;;;9.50;3.80;;;13.10;97.40;;;;;;2076170;28;20032;-69
2021/03/30 05:31:50;;;;;;;11.57;4.20;;;13.10;97.50;;;;;;2072038;28;20509;-69